Time;durP1;ratioP1;P1;durP2;ratioP2;P2;SDS_P1;SDS_P2;PMS_P1;PMS_P2;Temp;Humidity;BMP_temperature;BMP_pressure;BME280_temperature;BME280_humidity;BME280_pressure;Samples;Min_cycle;Max_cycle;Signal;HPM_P1;HPM_P2
2022/05/17 00:02:04;;;;;;;5.07;3.90;;;;;;;14.19;90.25;96100.34;5009913;28;20233;-77
2022/05/17 00:04:30;;;;;;;4.03;3.42;;;;;;;14.21;89.48;96093.16;5025738;28;20188;-78
2022/05/17 00:06:55;;;;;;;3.97;3.57;;;;;;;14.18;89.81;96090.88;5009222;28;20198;-78
2022/05/17 00:09:21;;;;;;;6.10;3.90;;;;;;;14.15;90.03;96085.97;5026548;28;20609;-78
2022/05/17 00:11:47;;;;;;;7.03;3.63;;;;;;;14.09;90.33;96095.25;5009198;28;20187;-78
2022/05/17 00:14:13;;;;;;;6.30;3.80;;;;;;;14.06;90.38;96098.19;4990099;28;20238;-78
2022/05/17 00:16:39;;;;;;;5.50;3.77;;;;;;;14.06;90.48;96094.75;5022902;28;20273;-77
2022/05/17 00:19:04;;;;;;;5.63;4.30;;;;;;;14.04;90.49;96092.28;5005576;28;20183;-78
2022/05/17 00:21:30;;;;;;;8.20;4.43;;;;;;;14.04;91.11;96094.88;5004778;28;20286;-78
2022/05/17 00:23:55;;;;;;;7.67;4.60;;;;;;;14.03;90.75;96095.03;4987830;28;20225;-77
2022/05/17 00:26:21;;;;;;;5.93;3.90;;;;;;;14.08;90.80;96095.41;4990142;28;20226;-76
2022/05/17 00:28:46;;;;;;;4.77;4.20;;;;;;;14.11;90.63;96092.47;5007042;28;20187;-78
2022/05/17 00:31:12;;;;;;;5.30;3.77;;;;;;;14.08;90.75;96084.97;4991543;28;20206;-77
2022/05/17 00:33:37;;;;;;;6.10;4.03;;;;;;;14.11;90.62;96090.69;5008826;28;20183;-78
2022/05/17 00:36:03;;;;;;;7.27;3.97;;;;;;;14.05;90.66;96090.50;5008130;28;20724;-78
2022/05/17 00:38:29;;;;;;;7.07;4.40;;;;;;;14.14;90.37;96090.38;4992349;28;20199;-77
2022/05/17 00:40:54;;;;;;;7.93;4.17;;;;;;;14.09;90.43;96087.41;5020963;28;20175;-77
2022/05/17 00:46:27;;;;;;;7.50;4.50;;;;;;;14.01;90.94;96082.16;5005524;28;20573;-77
2022/05/17 00:48:52;;;;;;;6.73;4.40;;;;;;;14.00;91.12;96077.91;5002177;28;20191;-76
2022/05/17 00:51:18;;;;;;;7.00;4.30;;;;;;;13.97;91.36;96077.41;5003079;28;20186;-78
2022/05/17 00:53:45;;;;;;;5.23;4.10;;;;;;;14.00;91.25;96074.47;5018316;28;20192;-77
2022/05/17 00:56:13;;;;;;;5.80;4.53;;;;;;;13.95;91.36;96072.31;5002213;28;20191;-76
2022/05/17 00:58:43;;;;;;;8.93;4.57;;;;;;;13.92;91.27;96072.63;5003414;28;20175;-76
2022/05/17 01:01:18;;;;;;;6.57;4.43;;;;;;;13.88;91.57;96069.53;4986260;28;20674;-77
2022/05/17 01:03:50;;;;;;;5.53;4.50;;;;;;;13.85;91.81;96064.59;5001510;28;20181;-77
2022/05/17 01:06:16;;;;;;;5.03;4.50;;;;;;;13.85;91.83;96063.78;5001632;28;20211;-76
2022/05/17 01:08:42;;;;;;;5.90;4.50;;;;;;;13.79;92.14;96060.00;5001420;28;20527;-77
2022/05/17 01:11:07;;;;;;;5.70;4.63;;;;;;;13.77;92.22;96064.56;5019292;28;20198;-76
2022/05/17 01:16:17;;;;;;;6.83;5.00;;;;;;;13.76;92.40;96073.34;5003821;28;20233;-77
2022/05/17 01:18:42;;;;;;;6.80;4.57;;;;;;;13.74;92.39;96072.69;4985031;28;20206;-77
2022/05/17 01:21:09;;;;;;;6.17;4.53;;;;;;;13.73;92.36;96075.47;4985116;28;20499;-77
2022/05/17 01:23:35;;;;;;;6.47;4.43;;;;;;;13.70;92.83;96075.78;4985216;28;20210;-77
2022/05/17 01:26:02;;;;;;;7.90;5.33;;;;;;;13.70;92.94;96078.41;5012815;28;20225;-77
2022/05/17 01:28:30;;;;;;;5.67;5.17;;;;;;;13.70;92.92;96081.81;5005349;28;20182;-77
2022/05/17 01:31:03;;;;;;;8.60;5.33;;;;;;;13.71;93.06;96073.00;5010083;28;20229;-76
2022/05/17 01:33:29;;;;;;;9.73;5.83;;;;;;;13.71;93.28;96074.81;5010591;28;20183;-77
2022/05/17 01:35:54;;;;;;;5.70;5.13;;;;;;;13.71;93.16;96073.00;5003137;28;20209;-77
2022/05/17 01:38:19;;;;;;;6.77;5.20;;;;;;;13.71;93.01;96073.00;5020670;28;20654;-77
2022/05/17 01:40:45;;;;;;;7.10;5.27;;;;;;;13.74;93.41;96061.44;5020730;28;20181;-76
2022/05/17 01:43:10;;;;;;;7.53;5.40;;;;;;;13.75;93.00;96069.09;5020582;28;20732;-76
2022/05/17 01:45:35;;;;;;;6.73;5.57;;;;;;;13.75;93.28;96066.50;5052304;28;20238;-77
2022/05/17 01:48:00;;;;;;;6.47;5.50;;;;;;;13.76;92.80;96060.31;5019815;28;20186;-76
2022/05/17 01:50:26;;;;;;;10.77;5.37;;;;;;;13.76;92.83;96060.31;5003110;28;20187;-77
2022/05/17 01:52:51;;;;;;;10.40;5.57;;;;;;;13.71;93.16;96065.19;5037983;28;20688;-77
2022/05/17 01:55:17;;;;;;;6.73;5.30;;;;;;;13.70;93.21;96071.38;5003744;28;20202;-78
2022/05/17 01:57:42;;;;;;;7.23;5.90;;;;;;;13.70;93.39;96065.34;5020303;28;20679;-77
2022/05/17 02:00:11;;;;;;;7.07;5.10;;;;;;;13.67;93.34;96069.06;5037212;28;20170;-77
2022/05/17 02:02:36;;;;;;;7.07;5.23;;;;;;;13.65;93.62;96067.59;5037343;28;20714;-78
2022/05/17 02:05:03;;;;;;;6.60;5.50;;;;;;;13.63;93.64;96067.75;5002536;28;20178;-78
2022/05/17 02:07:28;;;;;;;7.63;5.30;;;;;;;13.62;93.56;96058.28;5020407;28;20167;-77
2022/05/17 02:09:54;;;;;;;10.37;5.60;;;;;;;13.62;93.34;96058.28;5003822;28;20256;-77
2022/05/17 02:12:19;;;;;;;9.00;5.37;;;;;;;13.60;93.42;96049.75;5020085;28;20595;-76
2022/05/17 02:14:44;;;;;;;6.33;5.60;;;;;;;13.57;93.44;96055.31;5019569;28;20178;-77
2022/05/17 02:17:10;;;;;;;6.77;5.90;;;;;;;13.54;93.55;96055.63;5003842;28;20235;-78
2022/05/17 02:19:36;;;;;;;9.57;5.40;;;;;;;13.50;93.73;96051.66;5003706;28;20179;-76
2022/05/17 02:22:01;;;;;;;7.50;5.77;;;;;;;13.52;93.63;96047.13;5020442;28;20182;-77
2022/05/17 02:24:27;;;;;;;6.07;5.27;;;;;;;13.49;93.45;96048.22;5002840;28;20179;-78
2022/05/17 02:26:53;;;;;;;8.63;5.47;;;;;;;13.49;93.63;96053.44;5004178;28;20194;-77
2022/05/17 02:29:19;;;;;;;9.37;6.00;;;;;;;13.49;94.13;96052.63;5018271;28;20175;-76
2022/05/17 02:31:44;;;;;;;9.67;6.03;;;;;;;13.50;94.15;96062.09;5019841;28;20248;-77
2022/05/17 02:34:09;;;;;;;7.03;5.87;;;;;;;13.50;94.46;96060.31;5018738;28;20178;-78
2022/05/17 02:36:35;;;;;;;7.23;6.03;;;;;;;13.52;94.46;96058.38;5019939;28;20230;-76
2022/05/17 02:39:00;;;;;;;9.93;6.20;;;;;;;13.49;94.26;96063.88;5019042;28;20189;-76
2022/05/17 02:41:25;;;;;;;8.10;6.30;;;;;;;13.52;94.89;96070.63;5037208;28;20209;-78
2022/05/17 02:43:51;;;;;;;10.20;7.03;;;;;;;13.52;94.92;96068.81;5002233;28;20558;-77
2022/05/17 02:46:16;;;;;;;7.30;6.13;;;;;;;13.50;94.97;96064.72;5019302;28;20198;-77
2022/05/17 02:48:42;;;;;;;9.13;6.43;;;;;;;13.51;94.93;96068.94;5020360;28;20558;-77
2022/05/17 02:51:12;;;;;;;9.30;6.43;;;;;;;13.49;95.17;96070.91;5020562;28;20686;-77
2022/05/17 02:53:38;;;;;;;8.27;6.13;;;;;;;13.47;95.54;96071.06;5020326;28;20186;-77
2022/05/17 02:56:04;;;;;;;7.30;6.53;;;;;;;13.48;94.73;96067.47;5020296;28;20269;-77
2022/05/17 02:58:29;;;;;;;8.70;6.87;;;;;;;13.44;95.11;96076.59;5004265;28;20202;-77
2022/05/17 03:00:54;;;;;;;9.70;6.50;;;;;;;13.42;95.39;96078.50;4987715;28;20181;-77
2022/05/17 03:03:20;;;;;;;8.20;6.13;;;;;;;13.39;95.43;96081.44;5020144;28;20185;-77
2022/05/17 03:05:45;;;;;;;10.70;6.40;;;;;;;13.35;95.48;96087.13;5019503;28;20706;-77
2022/05/17 03:08:10;;;;;;;8.23;6.70;;;;;;;13.31;95.35;96083.97;5020512;28;20182;-77
2022/05/17 03:10:35;;;;;;;8.73;7.40;;;;;;;13.26;95.51;96084.44;5003560;28;20244;-77
2022/05/17 03:13:01;;;;;;;8.00;5.90;;;;;;;13.24;95.37;96082.94;5038118;28;20571;-77
2022/05/17 03:15:26;;;;;;;7.60;6.73;;;;;;;13.19;96.01;96083.41;5019628;28;20497;-77
2022/05/17 03:17:52;;;;;;;7.40;5.93;;;;;;;13.14;96.42;96088.19;5018916;28;20210;-75
2022/05/17 03:20:17;;;;;;;7.50;6.17;;;;;;;13.13;96.57;96093.56;5019858;28;20178;-77
2022/05/17 03:22:42;;;;;;;7.57;6.27;;;;;;;13.12;96.25;96097.97;5003197;28;20181;-77
2022/05/17 03:25:08;;;;;;;11.80;6.93;;;;;;;13.09;96.60;96097.47;5002946;28;20183;-76
2022/05/17 03:27:33;;;;;;;10.27;6.67;;;;;;;13.11;96.68;96098.94;5020186;28;20178;-76
2022/05/17 03:29:59;;;;;;;8.20;7.50;;;;;;;13.07;96.31;96094.97;5036576;28;20178;-77
2022/05/17 03:32:24;;;;;;;10.67;6.60;;;;;;;13.04;96.16;96103.94;5020517;28;20213;-77
2022/05/17 03:34:49;;;;;;;10.43;6.93;;;;;;;13.03;95.99;96104.91;5019712;28;20179;-77
2022/05/17 03:37:14;;;;;;;7.43;6.73;;;;;;;13.02;96.29;96108.47;5019500;28;20217;-77
2022/05/17 03:39:40;;;;;;;7.63;6.60;;;;;;;13.00;96.12;96112.22;5019873;28;20680;-76
2022/05/17 03:42:09;;;;;;;9.70;6.63;;;;;;;13.01;95.41;96114.66;5019647;28;20202;-77
2022/05/17 03:44:34;;;;;;;7.83;5.90;;;;;;;12.98;95.71;96111.53;5022058;28;20231;-75
2022/05/17 03:47:00;;;;;;;8.30;7.03;;;;;;;12.99;96.15;96114.00;5044773;28;20214;-76
2022/05/17 03:49:25;;;;;;;7.93;6.43;;;;;;;13.03;95.66;96114.50;5039074;28;20178;-77
2022/05/17 03:51:50;;;;;;;7.40;6.33;;;;;;;13.07;95.63;96112.41;5019693;28;20689;-76
2022/05/17 03:54:21;;;;;;;8.43;6.50;;;;;;;13.09;95.63;96115.72;5019541;28;20174;-77
2022/05/17 03:56:47;;;;;;;10.83;7.23;;;;;;;13.13;96.17;96124.88;5021363;28;20240;-77
2022/05/17 03:59:12;;;;;;;8.50;7.10;;;;;;;13.18;96.26;96126.06;5017568;28;20186;-76
2022/05/17 04:01:37;;;;;;;7.53;6.57;;;;;;;13.33;95.64;96124.59;5014968;28;20191;-76
2022/05/17 04:04:03;;;;;;;7.60;6.90;;;;;;;13.70;93.68;96118.34;5032215;28;20682;-77
2022/05/17 04:06:28;;;;;;;12.10;6.77;;;;;;;14.00;92.32;96116.25;5036667;28;20209;-76
2022/05/17 04:08:54;;;;;;;8.83;6.53;;;;;;;14.02;90.54;96117.72;5037627;28;20234;-76
2022/05/17 04:11:19;;;;;;;13.23;7.37;;;;;;;14.06;91.22;96123.47;5019182;28;20178;-75
2022/05/17 04:13:44;;;;;;;12.70;7.10;;;;;;;14.14;91.54;96121.72;5001832;28;20182;-77
2022/05/17 04:16:10;;;;;;;9.07;6.67;;;;;;;14.15;91.23;96117.31;5039178;28;20194;-77
2022/05/17 04:18:36;;;;;;;8.93;7.60;;;;;;;14.18;90.95;96120.44;5004916;28;20214;-76
2022/05/17 04:21:03;;;;;;;8.33;6.70;;;;;;;14.21;90.34;96121.91;5002828;28;20218;-76
2022/05/17 04:23:29;;;;;;;9.30;6.87;;;;;;;14.27;89.91;96126.50;5005213;28;20224;-77
2022/05/17 04:25:54;;;;;;;11.10;7.93;;;;;;;14.35;90.74;96125.72;5019715;28;20206;-76
2022/05/17 04:28:19;;;;;;;8.37;7.43;;;;;;;14.47;89.56;96131.53;5007381;28;20178;-77
2022/05/17 04:30:45;;;;;;;9.10;7.40;;;;;;;14.55;89.17;96128.94;5022198;28;20178;-77
2022/05/17 04:33:10;;;;;;;9.83;6.87;;;;;;;14.60;88.70;96127.50;5022580;28;20170;-76
2022/05/17 04:35:36;;;;;;;9.87;7.50;;;;;;;15.01;87.60;96120.56;5005880;28;20205;-76
2022/05/17 04:38:01;;;;;;;10.53;7.03;;;;;;;16.84;80.80;96131.28;5020632;28;20222;-77
2022/05/17 04:40:26;;;;;;;6.78;4.88;;;;;;;18.89;70.78;96142.44;5004660;28;20655;-78
2022/05/17 04:42:56;;;;;;;10.65;5.53;;;;;;;19.78;65.73;96134.22;5003176;28;20253;-76
2022/05/17 04:45:22;;;;;;;6.70;5.18;;;;;;;20.76;60.62;96140.34;5021440;28;20213;-77
2022/05/17 04:47:47;;;;;;;6.43;4.90;;;;;;;21.38;56.85;96147.25;5018118;28;20183;-78
2022/05/17 04:50:12;;;;;;;10.60;5.03;;;;;;;22.28;54.69;96149.38;5017797;28;20186;-77
2022/05/17 04:52:38;;;;;;;8.35;5.32;;;;;;;22.67;52.90;96138.88;5020854;28;20175;-78
2022/05/17 04:55:05;;;;;;;6.10;4.30;;;;;;;23.60;50.33;96149.91;5020413;28;20209;-77
2022/05/17 04:57:30;;;;;;;6.90;4.50;;;;;;;24.15;48.12;96145.59;5042009;28;20202;-78
2022/05/17 04:59:57;;;;;;;7.75;4.68;;;;;;;24.69;46.99;96148.56;5003011;28;20194;-78
2022/05/17 05:02:22;;;;;;;4.55;4.13;;;;;;;25.31;45.08;96162.53;5016010;28;20178;-76
2022/05/17 05:04:47;;;;;;;5.55;4.72;;;;;;;25.62;44.80;96159.66;5015953;28;20186;-77
2022/05/17 05:07:13;;;;;;;6.30;4.50;;;;;;;26.67;42.68;96158.16;5037944;28;20204;-76
2022/05/17 05:09:38;;;;;;;7.03;5.05;;;;;;;27.01;41.89;96164.47;5033458;28;20644;-77
2022/05/17 05:12:04;;;;;;;6.93;4.60;;;;;;;27.34;40.19;96159.28;5034124;28;20499;-76
2022/05/17 05:14:29;;;;;;;4.43;4.03;;;;;;;27.28;41.33;96149.56;5034079;28;20532;-77
2022/05/17 05:16:54;;;;;;;5.68;4.50;;;;;;;27.33;40.17;96159.53;5019989;28;20213;-77
2022/05/17 05:19:20;;;;;;;7.25;4.85;;;;;;;27.08;40.86;96159.84;5035009;28;20171;-77
2022/05/17 05:21:45;;;;;;;5.03;4.50;;;;;;;27.04;41.20;96170.19;5015250;28;20556;-76
2022/05/17 05:24:11;;;;;;;7.65;5.00;;;;;;;26.92;41.55;96165.88;5037267;28;20239;-77
2022/05/17 05:26:37;;;;;;;7.78;5.07;;;;;;;26.79;41.44;96169.63;5036347;28;20198;-78
2022/05/17 05:29:03;;;;;;;7.13;4.90;;;;;;;26.35;42.43;96171.81;5021672;28;20205;-78
2022/05/17 05:31:29;;;;;;;6.95;4.85;;;;;;;26.29;43.09;96174.59;5046391;28;20211;-76
2022/05/17 05:33:54;;;;;;;6.88;4.90;;;;;;;27.10;41.19;96171.06;5038385;28;20174;-77
2022/05/17 05:36:20;;;;;;;4.47;4.07;;;;;;;27.46;40.68;96180.56;5022198;28;20194;-77
2022/05/17 05:38:45;;;;;;;6.45;4.38;;;;;;;26.97;42.22;96176.66;5037156;28;20178;-76
2022/05/17 05:41:13;;;;;;;4.70;4.22;;;;;;;27.77;39.99;96181.97;5026854;28;20185;-77
2022/05/17 05:43:39;;;;;;;9.10;5.18;;;;;;;27.91;38.61;96180.59;5038302;28;20170;-77
2022/05/17 05:46:05;;;;;;;5.47;4.88;;;;;;;27.66;39.52;96177.50;5036298;28;20204;-78
2022/05/17 05:48:30;;;;;;;6.78;4.57;;;;;;;27.05;40.01;96181.66;5040491;28;20185;-77
2022/05/17 05:50:55;;;;;;;5.40;4.75;;;;;;;26.57;40.77;96180.06;5026506;28;20186;-78
2022/05/17 05:53:20;;;;;;;7.20;4.90;;;;;;;26.30;42.63;96186.88;5040229;28;20186;-78
2022/05/17 05:55:50;;;;;;;5.93;5.25;;;;;;;25.83;42.36;96190.28;5032369;28;20263;-77
2022/05/17 05:58:16;;;;;;;5.63;4.85;;;;;;;26.38;41.13;96198.00;5021602;28;20554;-78
2022/05/17 06:00:41;;;;;;;8.73;4.88;;;;;;;26.11;42.02;96196.81;5030319;28;20189;-78
2022/05/17 06:03:07;;;;;;;4.50;4.03;;;;;;;26.41;41.53;96200.19;5040623;28;20178;-77
2022/05/17 06:05:34;;;;;;;5.18;3.70;;;;;;;27.61;38.97;96196.06;5047541;28;20253;-76
2022/05/17 06:07:59;;;;;;;6.43;4.53;;;;;;;27.31;39.03;96196.31;5003474;28;20679;-77
2022/05/17 06:10:24;;;;;;;6.47;4.75;;;;;;;26.93;40.56;96194.94;5009728;28;20189;-77
2022/05/17 06:12:50;;;;;;;8.60;5.20;;;;;;;26.42;40.41;96203.69;5037686;28;20188;-78
2022/05/17 06:15:15;;;;;;;7.75;5.25;;;;;;;26.18;41.76;96203.66;5019203;28;20243;-78
2022/05/17 06:17:41;;;;;;;6.65;5.28;;;;;;;27.08;39.74;96202.50;5032725;28;20202;-77
2022/05/17 06:20:08;;;;;;;6.32;5.25;;;;;;;26.50;40.48;96206.00;5018313;28;20213;-77
2022/05/17 06:22:34;;;;;;;7.57;4.30;;;;;;;26.89;40.50;96203.66;5000980;28;20234;-78
2022/05/17 06:24:59;;;;;;;5.35;4.05;;;;;;;27.34;39.22;96201.16;5014757;28;20203;-78
2022/05/17 06:27:25;;;;;;;6.88;4.60;;;;;;;27.56;38.80;96203.94;5016253;28;20217;-78
2022/05/17 06:29:50;;;;;;;6.15;5.18;;;;;;;26.68;39.80;96202.41;5000336;28;20181;-78
2022/05/17 06:32:15;;;;;;;7.55;4.78;;;;;;;25.78;42.39;96206.09;5041784;28;20190;-76
2022/05/17 06:34:42;;;;;;;6.28;4.15;;;;;;;27.40;39.23;96202.06;5027581;28;20185;-77
2022/05/17 06:37:10;;;;;;;7.93;5.65;;;;;;;25.94;42.11;96205.44;5044722;28;20632;-76
2022/05/17 06:39:36;;;;;;;4.55;4.15;;;;;;;28.65;36.96;96209.03;5037927;28;20185;-77
2022/05/17 06:42:02;;;;;;;5.85;5.22;;;;;;;28.62;35.84;96206.84;5024706;28;20272;-77
2022/05/17 06:44:29;;;;;;;6.50;4.03;;;;;;;28.94;35.17;96205.19;5022456;28;20186;-77
2022/05/17 06:46:55;;;;;;;5.95;5.00;;;;;;;28.89;34.95;96213.16;5016407;28;20200;-77
2022/05/17 06:49:21;;;;;;;5.05;4.38;;;;;;;28.28;35.96;96217.53;5018911;28;20241;-79
2022/05/17 06:51:48;;;;;;;5.15;4.63;;;;;;;26.61;40.19;96212.38;5041971;28;20671;-78
2022/05/17 06:54:13;;;;;;;6.57;4.60;;;;;;;28.40;36.05;96210.25;5040649;28;20261;-78
2022/05/17 06:56:38;;;;;;;5.15;4.55;;;;;;;28.07;36.01;96199.53;5005131;28;20218;-78
2022/05/17 06:59:04;;;;;;;6.85;4.07;;;;;;;28.93;34.19;96214.25;5022666;28;20266;-78
2022/05/17 07:01:29;;;;;;;5.57;4.32;;;;;;;28.53;35.83;96221.66;5005399;28;20209;-77
2022/05/17 07:03:55;;;;;;;4.43;4.03;;;;;;;29.49;33.41;96222.19;5019672;28;20175;-78
2022/05/17 07:06:21;;;;;;;5.90;4.50;;;;;;;28.34;35.28;96216.56;5025586;28;20197;-79
2022/05/17 07:08:46;;;;;;;8.70;4.25;;;;;;;28.08;36.88;96211.84;5043920;28;20216;-79
2022/05/17 07:13:55;;;;;;;4.72;4.00;;;;;;;28.54;35.60;96213.44;5038770;28;20239;-78
2022/05/17 07:16:21;;;;;;;4.55;4.05;;;;;;;27.52;37.52;96218.81;5016268;28;20214;-78
2022/05/17 07:18:47;;;;;;;5.35;3.42;;;;;;;28.10;34.52;96215.09;5007695;28;20822;-78
2022/05/17 07:21:13;;;;;;;5.22;4.43;;;;;;;26.78;38.96;96214.13;5008449;28;20201;-79
2022/05/17 07:23:39;;;;;;;5.60;3.88;;;;;;;28.26;37.17;96211.59;5021990;28;20179;-78
2022/05/17 07:26:04;;;;;;;6.13;4.18;;;;;;;28.29;36.98;96213.03;5014345;28;20728;-78
2022/05/17 07:28:30;;;;;;;4.78;3.80;;;;;;;27.41;37.57;96209.81;5032386;28;20175;-78
2022/05/17 07:30:55;;;;;;;4.60;3.95;;;;;;;27.76;38.38;96209.72;5017042;28;20170;-78
2022/05/17 07:33:20;;;;;;;4.45;3.83;;;;;;;26.87;40.13;96205.75;5032623;28;20227;-78
2022/05/17 07:35:47;;;;;;;4.90;3.90;;;;;;;27.67;37.92;96213.81;5019631;28;20201;-78
2022/05/17 07:38:13;;;;;;;5.57;3.65;;;;;;;27.19;38.20;96211.50;5006284;28;20244;-77
2022/05/17 07:40:38;;;;;;;4.47;3.92;;;;;;;26.08;40.59;96216.72;4999725;28;20182;-78
2022/05/17 07:43:03;;;;;;;9.60;4.15;;;;;;;26.14;41.29;96206.97;5017414;28;20221;-76
2022/05/17 07:45:29;;;;;;;5.78;4.00;;;;;;;25.35;43.99;96208.91;5032327;28;20198;-78
2022/05/17 07:47:55;;;;;;;6.50;4.45;;;;;;;25.80;42.83;96214.69;5029169;28;20665;-78
2022/05/17 07:50:20;;;;;;;5.70;4.10;;;;;;;25.64;43.67;96212.63;5035489;28;20181;-78
2022/05/17 07:52:45;;;;;;;5.38;3.97;;;;;;;24.37;45.88;96212.38;5017827;28;20208;-77
2022/05/17 07:55:14;;;;;;;6.20;4.40;;;;;;;25.28;43.74;96214.31;5050783;28;20177;-77
2022/05/17 07:57:39;;;;;;;6.35;3.60;;;;;;;25.36;43.62;96222.00;5008926;28;20194;-78
2022/05/17 08:00:06;;;;;;;6.15;4.35;;;;;;;24.92;44.44;96216.97;5016351;28;20181;-78
2022/05/17 08:02:32;;;;;;;5.43;4.20;;;;;;;23.81;47.01;96213.19;5023693;28;20262;-78
2022/05/17 08:04:58;;;;;;;7.60;4.28;;;;;;;23.99;47.95;96215.91;5021215;28;20185;-77
2022/05/17 08:07:23;;;;;;;5.18;3.45;;;;;;;23.72;46.82;96209.19;5014184;28;20174;-77
2022/05/17 08:09:48;;;;;;;4.57;4.10;;;;;;;23.35;48.07;96211.59;5014545;28;20178;-77
2022/05/17 08:12:14;;;;;;;7.22;3.92;;;;;;;22.95;49.58;96213.56;5051604;28;20605;-77
2022/05/17 08:14:40;;;;;;;6.30;4.10;;;;;;;22.95;50.70;96212.75;5051048;28;20537;-77
2022/05/17 08:17:08;;;;;;;11.18;5.35;;;;;;;22.74;49.96;96211.97;5015107;28;20277;-78
2022/05/17 08:19:34;;;;;;;10.70;4.68;;;;;;;22.68;50.62;96215.44;5015362;28;20190;-77
2022/05/17 08:21:59;;;;;;;4.75;4.07;;;;;;;23.24;49.53;96204.31;5035311;28;21345;-78
2022/05/17 08:24:25;;;;;;;7.20;4.45;;;;;;;23.36;48.97;96205.25;5016260;28;20550;-77
2022/05/17 08:29:34;;;;;;;4.68;3.95;;;;;;;22.89;49.00;96209.13;5017803;28;20193;-76
2022/05/17 08:34:43;;;;;;;7.18;4.15;;;;;;;23.59;48.09;96210.09;4996490;28;20194;-81
2022/05/17 08:37:09;;;;;;;3.72;3.38;;;;;;;23.75;46.91;96214.03;5021002;28;20202;-78
2022/05/17 08:39:34;;;;;;;6.55;3.88;;;;;;;24.33;45.76;96213.03;5014120;28;20178;-76
2022/05/17 08:42:05;;;;;;;4.97;3.63;;;;;;;22.67;49.09;96213.81;5030634;28;20604;-77
2022/05/17 08:45:05;;;;;;;6.63;3.58;;;;;;;23.59;47.29;96212.72;5014062;28;20273;-77
2022/05/17 08:47:36;;;;;;;5.90;3.85;;;;;;;23.21;48.88;96206.56;4958388;28;20185;-77
2022/05/17 08:50:09;;;;;;;4.75;3.85;;;;;;;24.30;45.33;96211.63;4938964;29;20201;-77
2022/05/17 08:52:37;;;;;;;9.73;4.38;;;;;;;22.96;48.61;96203.78;4937414;29;20177;-77
2022/05/17 08:55:28;;;;;;;6.65;3.55;;;;;;;23.83;45.49;96208.47;4937888;28;20209;-76
2022/05/17 08:57:57;;;;;;;3.53;3.17;;;;;;;24.29;46.12;96215.28;4938975;28;20247;-78
2022/05/17 09:00:29;;;;;;;5.47;3.65;;;;;;;24.71;43.79;96203.06;4957739;28;20189;-77
2022/05/17 09:03:04;;;;;;;5.55;3.90;;;;;;;24.34;46.43;96212.00;4945292;29;20205;-76
2022/05/17 09:05:36;;;;;;;4.70;3.47;;;;;;;24.25;45.89;96206.13;4939584;29;20600;-77
2022/05/17 09:08:38;;;;;;;5.95;3.53;;;;;;;23.13;46.97;96197.00;4955876;28;20181;-75
2022/05/17 09:11:41;;;;;;;7.43;3.55;;;;;;;24.18;46.29;96200.88;4995324;28;20347;-76
2022/05/17 09:14:17;;;;;;;3.08;2.80;;;;;;;24.65;45.46;96198.66;4955897;29;20224;-77
2022/05/17 09:16:47;;;;;;;6.25;3.30;;;;;;;24.46;45.38;96199.63;4930703;29;20678;-78
2022/05/17 09:19:14;;;;;;;7.97;3.42;;;;;;;25.24;43.56;96209.66;4938287;29;20193;-78
2022/05/17 09:21:42;;;;;;;5.60;3.38;;;;;;;25.01;43.80;96208.47;4922654;29;20662;-78
2022/05/17 09:24:13;;;;;;;5.10;3.40;;;;;;;23.98;45.30;96208.19;4973163;28;20669;-78
2022/05/17 09:26:47;;;;;;;6.68;3.22;;;;;;;24.04;45.14;96211.81;4987717;28;20207;-76
2022/05/17 09:29:29;;;;;;;5.03;3.38;;;;;;;22.77;45.55;96203.63;5000163;28;20180;-75
2022/05/17 09:32:00;;;;;;;3.58;3.20;;;;;;;23.74;44.66;96204.47;4948893;28;20232;-76
2022/05/17 09:34:33;;;;;;;4.50;3.20;;;;;;;23.40;44.10;96201.16;4961990;29;20220;-76
2022/05/17 09:37:13;;;;;;;11.25;3.20;;;;;;;24.08;44.42;96205.84;4974813;28;20201;-78
2022/05/17 09:39:38;;;;;;;4.90;2.88;;;;;;;24.30;42.46;96201.00;4974497;28;20183;-78
2022/05/17 09:42:06;;;;;;;4.18;3.00;;;;;;;23.91;44.34;96202.91;4976327;28;20206;-77
2022/05/17 09:44:33;;;;;;;7.63;3.45;;;;;;;23.39;45.21;96196.06;4976830;28;20212;-75
2022/05/17 09:47:02;;;;;;;4.30;3.50;;;;;;;22.89;46.04;96194.06;4968932;28;20232;-77
2022/05/17 09:52:34;;;;;;;6.63;3.60;;;;;;;23.25;47.49;96191.88;5009000;28;20721;-75
2022/05/17 09:55:13;;;;;;;8.35;3.30;;;;;;;23.42;46.04;96196.47;5021241;28;20213;-77
2022/05/17 09:57:55;;;;;;;10.15;3.67;;;;;;;22.57;48.13;96194.91;5028754;28;20631;-77
2022/05/17 10:00:26;;;;;;;6.28;2.85;;;;;;;23.40;46.26;96187.09;5031369;28;20213;-76
2022/05/17 10:02:56;;;;;;;7.28;3.13;;;;;;;23.25;44.86;96187.38;5004361;28;20556;-76
2022/05/17 10:05:26;;;;;;;6.80;3.20;;;;;;;23.51;45.08;96191.75;5009725;28;20588;-77
2022/05/17 10:08:10;;;;;;;4.25;2.70;;;;;;;24.05;43.58;96186.91;5013463;28;20278;-77
2022/05/17 10:10:56;;;;;;;5.03;3.13;;;;;;;23.91;45.47;96189.66;5020344;28;20231;-77
2022/05/17 10:13:34;;;;;;;5.32;3.15;;;;;;;23.76;45.87;96186.50;5039227;28;20566;-78
2022/05/17 10:16:10;;;;;;;3.80;3.00;;;;;;;24.01;44.57;96176.72;5000279;28;20198;-77
2022/05/17 10:18:44;;;;;;;2.90;2.60;;;;;;;24.53;45.09;96174.66;5004584;28;20208;-77
2022/05/17 10:21:15;;;;;;;4.13;3.05;;;;;;;24.45;42.79;96180.25;5012539;28;20181;-77
2022/05/17 10:23:45;;;;;;;4.13;2.85;;;;;;;24.61;42.82;96170.09;5010130;28;20531;-76
2022/05/17 10:26:14;;;;;;;4.63;3.40;;;;;;;24.78;43.47;96176.44;5011226;28;20271;-77
2022/05/17 10:28:57;;;;;;;6.50;2.85;;;;;;;24.43;42.62;96163.72;5010629;28;20186;-77
2022/05/17 10:31:56;;;;;;;3.95;3.25;;;;;;;24.48;41.48;96166.56;5004828;28;20186;-78
2022/05/17 10:34:32;;;;;;;5.38;3.10;;;;;;;24.03;41.34;96163.25;4997486;28;20221;-77
2022/05/17 10:37:02;;;;;;;3.35;2.67;;;;;;;24.28;39.79;96163.22;5013752;28;20194;-77
2022/05/17 10:39:44;;;;;;;8.32;3.20;;;;;;;24.09;40.06;96156.25;5020740;28;20264;-78
2022/05/17 10:42:09;;;;;;;3.38;2.65;;;;;;;24.32;38.72;96164.47;5016378;28;20193;-77
2022/05/17 10:44:44;;;;;;;3.63;2.92;;;;;;;23.56;39.45;96170.69;5020322;28;20190;-75
2022/05/17 10:47:15;;;;;;;3.97;2.85;;;;;;;24.00;39.48;96156.53;5034330;28;20198;-77
2022/05/17 10:50:02;;;;;;;3.72;2.72;;;;;;;23.76;40.87;96162.63;5015697;28;20178;-76
2022/05/17 10:52:47;;;;;;;4.95;2.88;;;;;;;23.30;40.55;96157.59;5011307;28;20192;-76
2022/05/17 10:55:36;;;;;;;7.80;3.22;;;;;;;23.73;40.72;96147.16;4994206;28;20218;-76
2022/05/17 10:58:12;;;;;;;4.80;2.45;;;;;;;24.01;40.00;96134.28;5029258;28;20210;-76
2022/05/17 11:00:44;;;;;;;4.80;2.92;;;;;;;23.20;43.44;96142.16;5034356;28;20173;-76
2022/05/17 11:03:27;;;;;;;4.18;3.38;;;;;;;24.04;41.33;96133.06;5018146;28;20206;-77
2022/05/17 11:06:27;;;;;;;4.78;3.10;;;;;;;23.83;42.34;96136.88;5022831;28;20233;-80
2022/05/17 11:09:08;;;;;;;5.72;3.33;;;;;;;23.91;44.02;96136.59;5002732;28;20232;-78
2022/05/17 11:11:59;;;;;;;8.00;3.47;;;;;;;23.92;43.41;96130.28;5018107;28;20181;-76
2022/05/17 11:14:39;;;;;;;7.50;2.92;;;;;;;23.90;43.43;96134.19;5015471;28;20184;-78
2022/05/17 11:17:04;;;;;;;3.75;3.30;;;;;;;24.42;43.13;96124.94;5014160;28;20198;-77
2022/05/17 11:19:33;;;;;;;5.07;3.05;;;;;;;24.61;42.67;96128.41;5022388;28;20242;-78
2022/05/17 11:22:26;;;;;;;4.93;2.75;;;;;;;24.95;40.01;96137.63;5029147;28;20599;-78
2022/05/17 11:25:08;;;;;;;5.30;2.97;;;;;;;24.55;41.55;96140.72;4997013;28;20217;-77
2022/05/17 11:28:04;;;;;;;4.30;2.53;;;;;;;25.00;40.40;96135.13;5036122;28;20205;-78
2022/05/17 11:30:51;;;;;;;3.17;2.60;;;;;;;25.37;38.42;96137.72;5032418;28;20178;-78
2022/05/17 11:33:23;;;;;;;4.00;2.47;;;;;;;25.14;38.78;96131.28;5044022;28;20562;-78
2022/05/17 11:35:57;;;;;;;6.93;3.00;;;;;;;24.93;40.27;96121.09;5029571;28;20347;-78
2022/05/17 11:38:31;;;;;;;4.20;2.58;;;;;;;25.49;40.68;96124.47;5022256;28;20190;-78
2022/05/17 11:40:58;;;;;;;5.85;3.05;;;;;;;26.07;38.95;96124.59;5036355;28;20244;-78
2022/05/17 11:44:09;;;;;;;4.57;2.38;;;;;;;26.20;37.51;96126.22;5012394;28;20221;-78
2022/05/17 11:46:47;;;;;;;6.82;2.72;;;;;;;25.84;38.78;96124.56;4997936;28;20222;-78
2022/05/17 11:49:12;;;;;;;4.63;1.80;;;;;;;25.40;35.09;96116.81;5038710;28;20177;-78
2022/05/17 11:51:57;;;;;;;2.00;1.60;;;;;;;25.70;34.75;96118.59;5055161;28;20181;-78
2022/05/17 11:54:45;;;;;;;3.25;1.48;;;;;;;25.45;35.63;96118.81;5027248;28;20659;-78
2022/05/17 11:57:11;;;;;;;3.53;1.70;;;;;;;24.94;35.83;96114.75;5018349;28;20687;-78